sensor_id;sensor_type;location;lat;lon;timestamp;P1;durP1;ratioP1;P2;durP2;ratioP2
11996;SDS011;6058;48.704;9.474;2022-08-21T00:00:23;10.20;;;1.23;;
11996;SDS011;6058;48.704;9.474;2022-08-21T00:02:52;3.30;;;0.80;;
11996;SDS011;6058;48.704;9.474;2022-08-21T00:05:19;1.33;;;0.90;;
11996;SDS011;6058;48.704;9.474;2022-08-21T00:07:47;0.93;;;0.93;;
11996;SDS011;6058;48.704;9.474;2022-08-21T00:10:14;1.00;;;1.00;;
11996;SDS011;6058;48.704;9.474;2022-08-21T00:12:42;1.37;;;1.13;;
11996;SDS011;6058;48.704;9.474;2022-08-21T00:15:09;3.20;;;0.80;;
11996;SDS011;6058;48.704;9.474;2022-08-21T00:17:38;1.20;;;1.07;;
11996;SDS011;6058;48.704;9.474;2022-08-21T00:20:06;1.80;;;0.80;;
11996;SDS011;6058;48.704;9.474;2022-08-21T00:22:34;1.03;;;0.70;;
11996;SDS011;6058;48.704;9.474;2022-08-21T00:30:06;0.80;;;0.80;;
11996;SDS011;6058;48.704;9.474;2022-08-21T00:32:33;0.60;;;0.60;;
11996;SDS011;6058;48.704;9.474;2022-08-21T00:35:02;0.93;;;0.90;;
11996;SDS011;6058;48.704;9.474;2022-08-21T00:37:29;1.10;;;1.10;;
11996;SDS011;6058;48.704;9.474;2022-08-21T00:39:56;1.80;;;0.80;;
11996;SDS011;6058;48.704;9.474;2022-08-21T00:42:23;1.17;;;1.03;;
11996;SDS011;6058;48.704;9.474;2022-08-21T00:44:50;0.90;;;0.90;;
11996;SDS011;6058;48.704;9.474;2022-08-21T00:47:18;2.40;;;0.93;;
11996;SDS011;6058;48.704;9.474;2022-08-21T00:49:45;0.80;;;0.80;;
11996;SDS011;6058;48.704;9.474;2022-08-21T00:52:15;1.20;;;1.10;;
11996;SDS011;6058;48.704;9.474;2022-08-21T00:54:44;0.90;;;0.90;;
11996;SDS011;6058;48.704;9.474;2022-08-21T00:57:13;1.20;;;1.20;;
11996;SDS011;6058;48.704;9.474;2022-08-21T00:59:42;1.00;;;1.00;;
11996;SDS011;6058;48.704;9.474;2022-08-21T01:02:10;0.80;;;0.80;;
11996;SDS011;6058;48.704;9.474;2022-08-21T01:04:38;0.50;;;0.50;;
11996;SDS011;6058;48.704;9.474;2022-08-21T01:07:06;0.80;;;0.80;;
11996;SDS011;6058;48.704;9.474;2022-08-21T01:09:34;0.90;;;0.90;;
11996;SDS011;6058;48.704;9.474;2022-08-21T01:12:02;0.73;;;0.73;;
11996;SDS011;6058;48.704;9.474;2022-08-21T01:14:30;0.80;;;0.70;;
11996;SDS011;6058;48.704;9.474;2022-08-21T01:16:57;0.70;;;0.70;;
11996;SDS011;6058;48.704;9.474;2022-08-21T01:19:27;0.73;;;0.73;;
11996;SDS011;6058;48.704;9.474;2022-08-21T01:21:56;1.13;;;0.80;;
11996;SDS011;6058;48.704;9.474;2022-08-21T01:24:24;0.60;;;0.60;;
11996;SDS011;6058;48.704;9.474;2022-08-21T01:26:52;1.90;;;0.87;;
11996;SDS011;6058;48.704;9.474;2022-08-21T01:29:29;2.00;;;0.80;;
11996;SDS011;6058;48.704;9.474;2022-08-21T01:31:56;0.87;;;0.87;;
11996;SDS011;6058;48.704;9.474;2022-08-21T01:34:24;0.70;;;0.70;;
11996;SDS011;6058;48.704;9.474;2022-08-21T01:36:51;2.17;;;0.90;;
11996;SDS011;6058;48.704;9.474;2022-08-21T01:39:19;1.67;;;0.70;;
11996;SDS011;6058;48.704;9.474;2022-08-21T01:41:46;0.70;;;0.70;;
11996;SDS011;6058;48.704;9.474;2022-08-21T01:44:14;2.63;;;0.90;;
11996;SDS011;6058;48.704;9.474;2022-08-21T01:46:41;0.70;;;0.70;;
11996;SDS011;6058;48.704;9.474;2022-08-21T01:49:08;2.67;;;0.63;;
11996;SDS011;6058;48.704;9.474;2022-08-21T01:51:35;1.80;;;0.60;;
11996;SDS011;6058;48.704;9.474;2022-08-21T01:54:02;0.80;;;0.80;;
11996;SDS011;6058;48.704;9.474;2022-08-21T01:56:34;0.70;;;0.70;;
11996;SDS011;6058;48.704;9.474;2022-08-21T01:59:02;0.70;;;0.70;;
11996;SDS011;6058;48.704;9.474;2022-08-21T02:01:29;0.60;;;0.60;;
11996;SDS011;6058;48.704;9.474;2022-08-21T02:03:56;0.70;;;0.70;;
11996;SDS011;6058;48.704;9.474;2022-08-21T02:06:24;0.90;;;0.80;;
11996;SDS011;6058;48.704;9.474;2022-08-21T02:08:51;0.73;;;0.73;;
11996;SDS011;6058;48.704;9.474;2022-08-21T02:11:19;1.77;;;0.70;;
11996;SDS011;6058;48.704;9.474;2022-08-21T02:13:47;3.07;;;0.90;;
11996;SDS011;6058;48.704;9.474;2022-08-21T02:16:14;5.30;;;0.70;;
11996;SDS011;6058;48.704;9.474;2022-08-21T02:18:42;0.60;;;0.60;;
11996;SDS011;6058;48.704;9.474;2022-08-21T02:21:09;1.93;;;0.80;;
11996;SDS011;6058;48.704;9.474;2022-08-21T02:23:36;2.10;;;0.77;;
11996;SDS011;6058;48.704;9.474;2022-08-21T02:26:04;1.07;;;0.70;;
11996;SDS011;6058;48.704;9.474;2022-08-21T02:28:31;1.77;;;0.70;;
11996;SDS011;6058;48.704;9.474;2022-08-21T02:31:00;7.87;;;0.90;;
11996;SDS011;6058;48.704;9.474;2022-08-21T02:33:28;0.93;;;0.77;;
11996;SDS011;6058;48.704;9.474;2022-08-21T02:35:55;1.07;;;0.97;;
11996;SDS011;6058;48.704;9.474;2022-08-21T02:38:24;0.83;;;0.80;;
11996;SDS011;6058;48.704;9.474;2022-08-21T02:40:52;0.73;;;0.73;;
11996;SDS011;6058;48.704;9.474;2022-08-21T02:43:19;1.07;;;1.00;;
11996;SDS011;6058;48.704;9.474;2022-08-21T02:45:47;0.70;;;0.70;;
11996;SDS011;6058;48.704;9.474;2022-08-21T02:48:16;1.27;;;0.80;;
11996;SDS011;6058;48.704;9.474;2022-08-21T02:50:45;2.13;;;1.07;;
11996;SDS011;6058;48.704;9.474;2022-08-21T02:53:13;1.80;;;0.90;;
11996;SDS011;6058;48.704;9.474;2022-08-21T02:55:42;2.00;;;0.73;;
11996;SDS011;6058;48.704;9.474;2022-08-21T02:58:09;0.70;;;0.70;;
11996;SDS011;6058;48.704;9.474;2022-08-21T03:00:37;0.83;;;0.83;;
11996;SDS011;6058;48.704;9.474;2022-08-21T03:03:05;5.47;;;1.00;;
11996;SDS011;6058;48.704;9.474;2022-08-21T03:05:34;2.43;;;0.80;;
11996;SDS011;6058;48.704;9.474;2022-08-21T03:08:04;0.70;;;0.70;;
11996;SDS011;6058;48.704;9.474;2022-08-21T03:10:31;0.80;;;0.80;;
11996;SDS011;6058;48.704;9.474;2022-08-21T03:12:58;0.80;;;0.80;;
11996;SDS011;6058;48.704;9.474;2022-08-21T03:15:27;0.70;;;0.70;;
11996;SDS011;6058;48.704;9.474;2022-08-21T03:17:54;0.60;;;0.60;;
11996;SDS011;6058;48.704;9.474;2022-08-21T03:20:22;0.57;;;0.57;;
11996;SDS011;6058;48.704;9.474;2022-08-21T03:22:51;1.00;;;0.90;;
11996;SDS011;6058;48.704;9.474;2022-08-21T03:25:19;0.67;;;0.67;;
11996;SDS011;6058;48.704;9.474;2022-08-21T03:27:46;1.47;;;0.80;;
11996;SDS011;6058;48.704;9.474;2022-08-21T03:30:13;2.20;;;1.17;;
11996;SDS011;6058;48.704;9.474;2022-08-21T03:32:41;1.07;;;0.80;;
11996;SDS011;6058;48.704;9.474;2022-08-21T03:35:08;2.00;;;1.10;;
11996;SDS011;6058;48.704;9.474;2022-08-21T03:37:35;2.17;;;0.93;;
11996;SDS011;6058;48.704;9.474;2022-08-21T03:40:04;0.97;;;0.90;;
11996;SDS011;6058;48.704;9.474;2022-08-21T03:42:32;1.23;;;1.10;;
11996;SDS011;6058;48.704;9.474;2022-08-21T03:44:59;1.40;;;1.30;;
11996;SDS011;6058;48.704;9.474;2022-08-21T03:47:26;2.00;;;1.20;;
11996;SDS011;6058;48.704;9.474;2022-08-21T03:49:53;4.17;;;1.50;;
11996;SDS011;6058;48.704;9.474;2022-08-21T03:52:20;3.40;;;1.40;;
11996;SDS011;6058;48.704;9.474;2022-08-21T03:54:48;1.13;;;1.10;;
11996;SDS011;6058;48.704;9.474;2022-08-21T03:57:17;2.80;;;1.20;;
11996;SDS011;6058;48.704;9.474;2022-08-21T03:59:44;2.20;;;1.00;;
11996;SDS011;6058;48.704;9.474;2022-08-21T04:02:20;1.27;;;1.17;;
11996;SDS011;6058;48.704;9.474;2022-08-21T04:04:48;1.10;;;1.00;;
11996;SDS011;6058;48.704;9.474;2022-08-21T04:07:15;1.00;;;1.00;;
11996;SDS011;6058;48.704;9.474;2022-08-21T04:09:42;0.90;;;0.90;;
11996;SDS011;6058;48.704;9.474;2022-08-21T04:12:09;1.00;;;0.90;;
11996;SDS011;6058;48.704;9.474;2022-08-21T04:14:38;2.53;;;0.90;;
11996;SDS011;6058;48.704;9.474;2022-08-21T04:17:06;1.60;;;1.10;;
11996;SDS011;6058;48.704;9.474;2022-08-21T04:19:33;2.40;;;1.00;;
11996;SDS011;6058;48.704;9.474;2022-08-21T04:22:00;1.57;;;1.10;;
11996;SDS011;6058;48.704;9.474;2022-08-21T04:24:28;2.07;;;1.00;;
11996;SDS011;6058;48.704;9.474;2022-08-21T04:26:55;0.80;;;0.80;;
11996;SDS011;6058;48.704;9.474;2022-08-21T04:29:22;2.27;;;0.97;;
11996;SDS011;6058;48.704;9.474;2022-08-21T04:31:50;2.03;;;1.13;;
11996;SDS011;6058;48.704;9.474;2022-08-21T04:34:18;1.73;;;0.97;;
11996;SDS011;6058;48.704;9.474;2022-08-21T04:36:45;1.00;;;1.00;;
11996;SDS011;6058;48.704;9.474;2022-08-21T04:39:12;1.93;;;1.27;;
11996;SDS011;6058;48.704;9.474;2022-08-21T04:41:39;1.97;;;1.20;;
11996;SDS011;6058;48.704;9.474;2022-08-21T04:44:06;1.23;;;1.13;;
11996;SDS011;6058;48.704;9.474;2022-08-21T04:46:33;5.43;;;1.17;;
11996;SDS011;6058;48.704;9.474;2022-08-21T04:49:02;2.57;;;1.20;;
11996;SDS011;6058;48.704;9.474;2022-08-21T04:51:31;1.10;;;1.10;;
11996;SDS011;6058;48.704;9.474;2022-08-21T04:54:00;2.83;;;1.10;;
11996;SDS011;6058;48.704;9.474;2022-08-21T04:56:28;1.23;;;1.20;;
11996;SDS011;6058;48.704;9.474;2022-08-21T04:58:57;1.67;;;1.03;;
11996;SDS011;6058;48.704;9.474;2022-08-21T05:01:25;0.87;;;0.87;;
11996;SDS011;6058;48.704;9.474;2022-08-21T05:03:54;2.80;;;0.80;;
11996;SDS011;6058;48.704;9.474;2022-08-21T05:06:24;1.13;;;1.10;;
11996;SDS011;6058;48.704;9.474;2022-08-21T05:08:52;1.27;;;1.17;;
11996;SDS011;6058;48.704;9.474;2022-08-21T05:11:19;3.13;;;1.10;;
11996;SDS011;6058;48.704;9.474;2022-08-21T05:13:47;0.70;;;0.70;;
11996;SDS011;6058;48.704;9.474;2022-08-21T05:16:14;0.80;;;0.80;;
11996;SDS011;6058;48.704;9.474;2022-08-21T05:18:42;2.93;;;1.10;;
11996;SDS011;6058;48.704;9.474;2022-08-21T05:21:09;1.33;;;0.90;;
11996;SDS011;6058;48.704;9.474;2022-08-21T05:23:37;0.90;;;0.90;;
11996;SDS011;6058;48.704;9.474;2022-08-21T05:26:05;0.80;;;0.80;;
11996;SDS011;6058;48.704;9.474;2022-08-21T05:28:32;1.40;;;0.93;;
11996;SDS011;6058;48.704;9.474;2022-08-21T05:30:59;1.07;;;1.00;;
11996;SDS011;6058;48.704;9.474;2022-08-21T05:33:26;0.80;;;0.80;;
11996;SDS011;6058;48.704;9.474;2022-08-21T05:35:54;2.87;;;0.77;;
11996;SDS011;6058;48.704;9.474;2022-08-21T05:38:21;0.80;;;0.80;;
11996;SDS011;6058;48.704;9.474;2022-08-21T05:40:50;0.87;;;0.87;;
11996;SDS011;6058;48.704;9.474;2022-08-21T05:43:17;1.20;;;1.20;;
11996;SDS011;6058;48.704;9.474;2022-08-21T05:45:44;0.87;;;0.87;;
11996;SDS011;6058;48.704;9.474;2022-08-21T05:48:12;1.50;;;1.40;;
11996;SDS011;6058;48.704;9.474;2022-08-21T05:50:40;1.00;;;1.00;;
11996;SDS011;6058;48.704;9.474;2022-08-21T05:53:07;1.83;;;1.33;;
11996;SDS011;6058;48.704;9.474;2022-08-21T05:55:35;3.33;;;1.00;;
11996;SDS011;6058;48.704;9.474;2022-08-21T05:58:04;0.90;;;0.90;;
11996;SDS011;6058;48.704;9.474;2022-08-21T06:00:31;0.90;;;0.90;;
11996;SDS011;6058;48.704;9.474;2022-08-21T06:02:58;4.00;;;1.10;;
11996;SDS011;6058;48.704;9.474;2022-08-21T06:05:26;1.23;;;1.13;;
11996;SDS011;6058;48.704;9.474;2022-08-21T06:07:53;1.73;;;1.30;;
11996;SDS011;6058;48.704;9.474;2022-08-21T06:10:20;1.10;;;1.10;;
11996;SDS011;6058;48.704;9.474;2022-08-21T06:12:52;1.00;;;1.00;;
11996;SDS011;6058;48.704;9.474;2022-08-21T06:15:21;0.97;;;0.97;;
11996;SDS011;6058;48.704;9.474;2022-08-21T06:17:48;1.10;;;1.10;;
11996;SDS011;6058;48.704;9.474;2022-08-21T06:20:15;1.10;;;1.10;;
11996;SDS011;6058;48.704;9.474;2022-08-21T06:22:42;4.53;;;1.17;;
11996;SDS011;6058;48.704;9.474;2022-08-21T06:27:37;1.30;;;1.20;;
11996;SDS011;6058;48.704;9.474;2022-08-21T06:30:05;1.53;;;1.43;;
11996;SDS011;6058;48.704;9.474;2022-08-21T06:32:34;1.50;;;1.40;;
11996;SDS011;6058;48.704;9.474;2022-08-21T06:35:01;1.63;;;1.53;;
11996;SDS011;6058;48.704;9.474;2022-08-21T06:37:28;2.10;;;1.40;;
11996;SDS011;6058;48.704;9.474;2022-08-21T06:39:56;1.20;;;1.07;;
11996;SDS011;6058;48.704;9.474;2022-08-21T06:42:23;1.40;;;1.30;;
11996;SDS011;6058;48.704;9.474;2022-08-21T06:44:52;1.73;;;1.63;;
11996;SDS011;6058;48.704;9.474;2022-08-21T06:47:20;4.20;;;1.50;;
11996;SDS011;6058;48.704;9.474;2022-08-21T06:49:48;1.60;;;1.50;;
11996;SDS011;6058;48.704;9.474;2022-08-21T06:52:16;1.60;;;1.50;;
11996;SDS011;6058;48.704;9.474;2022-08-21T06:54:43;2.03;;;1.40;;
11996;SDS011;6058;48.704;9.474;2022-08-21T06:57:10;1.70;;;1.50;;
11996;SDS011;6058;48.704;9.474;2022-08-21T06:59:37;1.67;;;1.57;;
11996;SDS011;6058;48.704;9.474;2022-08-21T07:02:05;1.70;;;1.40;;
11996;SDS011;6058;48.704;9.474;2022-08-21T07:04:32;1.53;;;1.30;;
11996;SDS011;6058;48.704;9.474;2022-08-21T07:07:01;1.87;;;1.40;;
11996;SDS011;6058;48.704;9.474;2022-08-21T07:09:28;3.87;;;1.63;;
11996;SDS011;6058;48.704;9.474;2022-08-21T07:11:55;1.37;;;1.27;;
11996;SDS011;6058;48.704;9.474;2022-08-21T07:14:23;2.17;;;1.70;;
11996;SDS011;6058;48.704;9.474;2022-08-21T07:16:50;1.60;;;1.50;;
11996;SDS011;6058;48.704;9.474;2022-08-21T07:19:17;2.03;;;1.90;;
11996;SDS011;6058;48.704;9.474;2022-08-21T07:21:45;1.55;;;1.30;;
11996;SDS011;6058;48.704;9.474;2022-08-21T07:24:13;1.83;;;1.60;;
11996;SDS011;6058;48.704;9.474;2022-08-21T07:26:40;1.70;;;1.60;;
11996;SDS011;6058;48.704;9.474;2022-08-21T07:29:07;1.73;;;1.63;;
11996;SDS011;6058;48.704;9.474;2022-08-21T07:31:35;4.10;;;1.80;;
11996;SDS011;6058;48.704;9.474;2022-08-21T07:34:02;1.90;;;1.67;;
11996;SDS011;6058;48.704;9.474;2022-08-21T07:36:29;1.75;;;1.45;;
11996;SDS011;6058;48.704;9.474;2022-08-21T07:41:42;3.03;;;1.80;;
11996;SDS011;6058;48.704;9.474;2022-08-21T07:44:09;4.57;;;1.83;;
11996;SDS011;6058;48.704;9.474;2022-08-21T07:46:36;2.10;;;1.90;;
11996;SDS011;6058;48.704;9.474;2022-08-21T07:49:03;5.00;;;1.67;;
11996;SDS011;6058;48.704;9.474;2022-08-21T07:51:30;4.38;;;1.92;;
11996;SDS011;6058;48.704;9.474;2022-08-21T07:53:59;4.47;;;1.83;;
11996;SDS011;6058;48.704;9.474;2022-08-21T07:56:27;1.90;;;1.70;;
11996;SDS011;6058;48.704;9.474;2022-08-21T07:58:56;3.13;;;1.75;;
11996;SDS011;6058;48.704;9.474;2022-08-21T08:01:23;3.95;;;2.03;;
11996;SDS011;6058;48.704;9.474;2022-08-21T08:03:50;2.30;;;2.10;;
11996;SDS011;6058;48.704;9.474;2022-08-21T08:06:18;2.20;;;1.98;;
11996;SDS011;6058;48.704;9.474;2022-08-21T08:08:45;2.22;;;1.60;;
11996;SDS011;6058;48.704;9.474;2022-08-21T08:11:12;3.40;;;1.67;;
11996;SDS011;6058;48.704;9.474;2022-08-21T08:13:41;3.78;;;1.70;;
11996;SDS011;6058;48.704;9.474;2022-08-21T08:16:09;5.00;;;1.83;;
11996;SDS011;6058;48.704;9.474;2022-08-21T08:18:37;3.03;;;1.70;;
11996;SDS011;6058;48.704;9.474;2022-08-21T08:21:04;1.83;;;1.70;;
11996;SDS011;6058;48.704;9.474;2022-08-21T08:23:32;2.22;;;1.90;;
11996;SDS011;6058;48.704;9.474;2022-08-21T08:25:59;4.28;;;2.10;;
11996;SDS011;6058;48.704;9.474;2022-08-21T08:28:27;2.00;;;1.80;;
11996;SDS011;6058;48.704;9.474;2022-08-21T08:30:56;4.97;;;2.40;;
11996;SDS011;6058;48.704;9.474;2022-08-21T08:33:25;3.55;;;2.08;;
11996;SDS011;6058;48.704;9.474;2022-08-21T08:35:52;6.05;;;2.50;;
11996;SDS011;6058;48.704;9.474;2022-08-21T08:38:20;4.50;;;2.28;;
11996;SDS011;6058;48.704;9.474;2022-08-21T08:40:50;3.80;;;2.35;;
11996;SDS011;6058;48.704;9.474;2022-08-21T08:43:19;3.42;;;2.30;;
11996;SDS011;6058;48.704;9.474;2022-08-21T08:45:47;2.15;;;1.90;;
11996;SDS011;6058;48.704;9.474;2022-08-21T08:48:18;5.50;;;2.58;;
11996;SDS011;6058;48.704;9.474;2022-08-21T08:50:56;4.63;;;2.45;;
11996;SDS011;6058;48.704;9.474;2022-08-21T08:53:24;3.90;;;2.40;;
11996;SDS011;6058;48.704;9.474;2022-08-21T08:55:52;3.13;;;2.45;;
11996;SDS011;6058;48.704;9.474;2022-08-21T08:58:22;6.50;;;2.58;;
11996;SDS011;6058;48.704;9.474;2022-08-21T09:00:50;5.18;;;2.70;;
11996;SDS011;6058;48.704;9.474;2022-08-21T09:03:18;3.28;;;2.42;;
11996;SDS011;6058;48.704;9.474;2022-08-21T09:05:46;4.32;;;2.13;;
11996;SDS011;6058;48.704;9.474;2022-08-21T09:08:27;4.88;;;2.50;;
11996;SDS011;6058;48.704;9.474;2022-08-21T09:11:08;2.92;;;2.30;;
11996;SDS011;6058;48.704;9.474;2022-08-21T09:13:40;6.32;;;2.95;;
11996;SDS011;6058;48.704;9.474;2022-08-21T09:16:12;6.18;;;2.83;;
11996;SDS011;6058;48.704;9.474;2022-08-21T09:18:42;4.38;;;3.45;;
11996;SDS011;6058;48.704;9.474;2022-08-21T09:21:15;5.97;;;3.00;;
11996;SDS011;6058;48.704;9.474;2022-08-21T09:23:46;3.40;;;2.70;;
11996;SDS011;6058;48.704;9.474;2022-08-21T09:26:15;7.00;;;2.60;;
11996;SDS011;6058;48.704;9.474;2022-08-21T09:28:42;4.72;;;3.28;;
11996;SDS011;6058;48.704;9.474;2022-08-21T09:31:11;3.17;;;2.63;;
11996;SDS011;6058;48.704;9.474;2022-08-21T09:33:42;3.42;;;2.40;;
11996;SDS011;6058;48.704;9.474;2022-08-21T09:36:09;6.22;;;2.88;;
11996;SDS011;6058;48.704;9.474;2022-08-21T09:38:37;3.45;;;2.30;;
11996;SDS011;6058;48.704;9.474;2022-08-21T09:41:06;6.65;;;2.70;;
11996;SDS011;6058;48.704;9.474;2022-08-21T09:43:33;5.03;;;2.60;;
11996;SDS011;6058;48.704;9.474;2022-08-21T09:46:02;2.55;;;2.28;;
11996;SDS011;6058;48.704;9.474;2022-08-21T09:48:29;5.43;;;2.63;;
11996;SDS011;6058;48.704;9.474;2022-08-21T09:51:05;4.50;;;2.65;;
11996;SDS011;6058;48.704;9.474;2022-08-21T09:53:32;5.78;;;2.72;;
11996;SDS011;6058;48.704;9.474;2022-08-21T09:56:00;5.07;;;2.72;;
11996;SDS011;6058;48.704;9.474;2022-08-21T09:58:49;3.70;;;2.30;;
11996;SDS011;6058;48.704;9.474;2022-08-21T10:01:17;5.18;;;2.90;;
11996;SDS011;6058;48.704;9.474;2022-08-21T10:03:45;7.15;;;3.33;;
11996;SDS011;6058;48.704;9.474;2022-08-21T10:06:22;6.30;;;2.85;;
11996;SDS011;6058;48.704;9.474;2022-08-21T10:08:49;5.95;;;2.88;;
11996;SDS011;6058;48.704;9.474;2022-08-21T10:11:17;4.28;;;2.58;;
11996;SDS011;6058;48.704;9.474;2022-08-21T10:13:53;5.93;;;2.38;;
11996;SDS011;6058;48.704;9.474;2022-08-21T10:16:24;9.93;;;2.80;;
11996;SDS011;6058;48.704;9.474;2022-08-21T10:18:56;5.70;;;2.65;;
11996;SDS011;6058;48.704;9.474;2022-08-21T10:21:27;4.00;;;2.55;;
11996;SDS011;6058;48.704;9.474;2022-08-21T10:23:59;5.13;;;1.92;;
11996;SDS011;6058;48.704;9.474;2022-08-21T10:26:31;8.02;;;2.53;;
11996;SDS011;6058;48.704;9.474;2022-08-21T10:29:06;5.60;;;2.40;;
11996;SDS011;6058;48.704;9.474;2022-08-21T10:31:37;4.45;;;2.40;;
11996;SDS011;6058;48.704;9.474;2022-08-21T10:34:10;4.82;;;2.30;;
11996;SDS011;6058;48.704;9.474;2022-08-21T10:36:43;5.80;;;2.20;;
11996;SDS011;6058;48.704;9.474;2022-08-21T10:39:13;3.10;;;2.15;;
11996;SDS011;6058;48.704;9.474;2022-08-21T10:41:47;6.23;;;2.63;;
11996;SDS011;6058;48.704;9.474;2022-08-21T10:44:22;5.13;;;2.42;;
11996;SDS011;6058;48.704;9.474;2022-08-21T10:46:54;3.38;;;2.30;;
11996;SDS011;6058;48.704;9.474;2022-08-21T10:49:28;3.60;;;1.85;;
11996;SDS011;6058;48.704;9.474;2022-08-21T10:52:02;5.15;;;2.03;;
11996;SDS011;6058;48.704;9.474;2022-08-21T10:54:36;4.72;;;2.03;;
11996;SDS011;6058;48.704;9.474;2022-08-21T10:57:07;5.23;;;2.33;;
11996;SDS011;6058;48.704;9.474;2022-08-21T10:59:40;3.40;;;2.00;;
11996;SDS011;6058;48.704;9.474;2022-08-21T11:02:13;3.75;;;1.92;;
11996;SDS011;6058;48.704;9.474;2022-08-21T11:04:45;3.22;;;2.20;;
11996;SDS011;6058;48.704;9.474;2022-08-21T11:07:16;5.40;;;1.92;;
11996;SDS011;6058;48.704;9.474;2022-08-21T11:09:45;4.18;;;2.10;;
11996;SDS011;6058;48.704;9.474;2022-08-21T11:12:17;2.30;;;2.08;;
11996;SDS011;6058;48.704;9.474;2022-08-21T11:14:49;4.25;;;2.65;;
11996;SDS011;6058;48.704;9.474;2022-08-21T11:17:18;7.40;;;2.55;;
11996;SDS011;6058;48.704;9.474;2022-08-21T11:19:50;6.95;;;2.65;;
11996;SDS011;6058;48.704;9.474;2022-08-21T11:22:20;4.00;;;2.43;;
11996;SDS011;6058;48.704;9.474;2022-08-21T11:24:49;4.78;;;2.65;;
11996;SDS011;6058;48.704;9.474;2022-08-21T11:27:21;7.90;;;2.67;;
11996;SDS011;6058;48.704;9.474;2022-08-21T11:29:54;5.80;;;2.58;;
11996;SDS011;6058;48.704;9.474;2022-08-21T11:32:25;4.47;;;2.40;;
11996;SDS011;6058;48.704;9.474;2022-08-21T11:35:07;3.42;;;2.50;;
11996;SDS011;6058;48.704;9.474;2022-08-21T11:37:42;5.90;;;2.10;;
11996;SDS011;6058;48.704;9.474;2022-08-21T11:40:12;4.28;;;1.90;;
11996;SDS011;6058;48.704;9.474;2022-08-21T11:42:43;5.22;;;2.92;;
11996;SDS011;6058;48.704;9.474;2022-08-21T11:45:17;5.45;;;2.30;;
11996;SDS011;6058;48.704;9.474;2022-08-21T11:47:51;3.53;;;2.40;;
11996;SDS011;6058;48.704;9.474;2022-08-21T11:50:21;3.40;;;2.05;;
11996;SDS011;6058;48.704;9.474;2022-08-21T11:52:51;4.65;;;2.28;;
11996;SDS011;6058;48.704;9.474;2022-08-21T11:55:23;4.93;;;2.22;;
11996;SDS011;6058;48.704;9.474;2022-08-21T11:57:56;4.88;;;2.40;;
11996;SDS011;6058;48.704;9.474;2022-08-21T12:00:28;4.32;;;2.40;;
11996;SDS011;6058;48.704;9.474;2022-08-21T12:03:11;4.50;;;2.50;;
11996;SDS011;6058;48.704;9.474;2022-08-21T12:05:40;3.70;;;2.00;;
11996;SDS011;6058;48.704;9.474;2022-08-21T12:08:10;7.07;;;2.63;;
11996;SDS011;6058;48.704;9.474;2022-08-21T12:10:47;5.20;;;2.58;;
11996;SDS011;6058;48.704;9.474;2022-08-21T12:13:27;3.15;;;2.28;;
11996;SDS011;6058;48.704;9.474;2022-08-21T12:16:05;3.47;;;2.42;;
11996;SDS011;6058;48.704;9.474;2022-08-21T12:18:33;3.92;;;2.38;;
11996;SDS011;6058;48.704;9.474;2022-08-21T12:21:04;3.47;;;2.20;;
11996;SDS011;6058;48.704;9.474;2022-08-21T12:23:32;4.47;;;2.50;;
11996;SDS011;6058;48.704;9.474;2022-08-21T12:28:48;3.97;;;2.70;;
11996;SDS011;6058;48.704;9.474;2022-08-21T12:31:18;4.20;;;2.35;;
11996;SDS011;6058;48.704;9.474;2022-08-21T12:33:49;5.78;;;2.10;;
11996;SDS011;6058;48.704;9.474;2022-08-21T12:36:19;2.05;;;1.85;;
11996;SDS011;6058;48.704;9.474;2022-08-21T12:38:47;2.42;;;2.22;;
11996;SDS011;6058;48.704;9.474;2022-08-21T12:41:19;5.13;;;2.38;;
11996;SDS011;6058;48.704;9.474;2022-08-21T12:43:50;3.40;;;1.95;;
11996;SDS011;6058;48.704;9.474;2022-08-21T12:46:20;3.80;;;2.25;;
11996;SDS011;6058;48.704;9.474;2022-08-21T12:49:01;2.20;;;2.00;;
11996;SDS011;6058;48.704;9.474;2022-08-21T12:51:31;5.97;;;2.10;;
11996;SDS011;6058;48.704;9.474;2022-08-21T12:54:01;3.00;;;1.90;;
11996;SDS011;6058;48.704;9.474;2022-08-21T12:56:29;3.88;;;2.22;;
11996;SDS011;6058;48.704;9.474;2022-08-21T12:58:59;5.15;;;1.85;;
11996;SDS011;6058;48.704;9.474;2022-08-21T13:01:30;4.13;;;2.35;;
11996;SDS011;6058;48.704;9.474;2022-08-21T13:03:59;2.40;;;2.00;;
11996;SDS011;6058;48.704;9.474;2022-08-21T13:06:28;5.07;;;2.60;;
11996;SDS011;6058;48.704;9.474;2022-08-21T13:08:58;3.42;;;1.80;;
11996;SDS011;6058;48.704;9.474;2022-08-21T13:11:31;1.70;;;1.60;;
11996;SDS011;6058;48.704;9.474;2022-08-21T13:13:58;1.70;;;1.50;;
11996;SDS011;6058;48.704;9.474;2022-08-21T13:16:27;2.58;;;2.05;;
11996;SDS011;6058;48.704;9.474;2022-08-21T13:18:57;4.28;;;2.30;;
11996;SDS011;6058;48.704;9.474;2022-08-21T13:21:27;5.00;;;2.25;;
11996;SDS011;6058;48.704;9.474;2022-08-21T13:23:54;3.42;;;1.92;;
11996;SDS011;6058;48.704;9.474;2022-08-21T13:26:33;3.47;;;2.17;;
11996;SDS011;6058;48.704;9.474;2022-08-21T13:29:05;4.45;;;2.08;;
11996;SDS011;6058;48.704;9.474;2022-08-21T13:31:33;3.03;;;1.95;;
11996;SDS011;6058;48.704;9.474;2022-08-21T13:34:01;2.45;;;2.05;;
11996;SDS011;6058;48.704;9.474;2022-08-21T13:36:29;3.00;;;1.63;;
11996;SDS011;6058;48.704;9.474;2022-08-21T13:38:56;2.75;;;1.65;;
11996;SDS011;6058;48.704;9.474;2022-08-21T13:41:25;1.40;;;1.30;;
11996;SDS011;6058;48.704;9.474;2022-08-21T13:43:56;1.73;;;1.58;;
11996;SDS011;6058;48.704;9.474;2022-08-21T13:46:24;3.00;;;1.85;;
11996;SDS011;6058;48.704;9.474;2022-08-21T13:48:51;2.95;;;1.70;;
11996;SDS011;6058;48.704;9.474;2022-08-21T13:51:20;3.17;;;2.17;;
11996;SDS011;6058;48.704;9.474;2022-08-21T13:53:48;3.47;;;2.00;;
11996;SDS011;6058;48.704;9.474;2022-08-21T13:56:24;3.08;;;1.70;;
11996;SDS011;6058;48.704;9.474;2022-08-21T13:58:51;3.35;;;1.67;;
11996;SDS011;6058;48.704;9.474;2022-08-21T14:01:20;2.20;;;1.63;;
11996;SDS011;6058;48.704;9.474;2022-08-21T14:03:48;1.63;;;1.52;;
11996;SDS011;6058;48.704;9.474;2022-08-21T14:06:17;1.58;;;1.42;;
11996;SDS011;6058;48.704;9.474;2022-08-21T14:08:50;2.05;;;1.85;;
11996;SDS011;6058;48.704;9.474;2022-08-21T14:11:17;3.45;;;2.05;;
11996;SDS011;6058;48.704;9.474;2022-08-21T14:13:45;3.28;;;1.65;;
11996;SDS011;6058;48.704;9.474;2022-08-21T14:16:15;3.33;;;1.88;;
11996;SDS011;6058;48.704;9.474;2022-08-21T14:18:43;2.95;;;1.80;;
11996;SDS011;6058;48.704;9.474;2022-08-21T14:21:10;5.55;;;1.83;;
11996;SDS011;6058;48.704;9.474;2022-08-21T14:23:38;3.55;;;1.40;;
11996;SDS011;6058;48.704;9.474;2022-08-21T14:26:07;3.22;;;1.67;;
11996;SDS011;6058;48.704;9.474;2022-08-21T14:28:37;1.80;;;1.60;;
11996;SDS011;6058;48.704;9.474;2022-08-21T14:31:12;4.20;;;1.65;;
11996;SDS011;6058;48.704;9.474;2022-08-21T14:33:39;2.88;;;1.60;;
11996;SDS011;6058;48.704;9.474;2022-08-21T14:36:07;1.73;;;1.63;;
11996;SDS011;6058;48.704;9.474;2022-08-21T14:38:35;1.75;;;1.30;;
11996;SDS011;6058;48.704;9.474;2022-08-21T14:41:03;4.63;;;1.63;;
11996;SDS011;6058;48.704;9.474;2022-08-21T14:43:33;1.45;;;1.35;;
11996;SDS011;6058;48.704;9.474;2022-08-21T14:46:00;4.30;;;1.63;;
11996;SDS011;6058;48.704;9.474;2022-08-21T14:48:27;2.17;;;1.60;;
11996;SDS011;6058;48.704;9.474;2022-08-21T14:50:54;1.77;;;1.48;;
11996;SDS011;6058;48.704;9.474;2022-08-21T14:53:21;1.50;;;1.40;;
11996;SDS011;6058;48.704;9.474;2022-08-21T14:55:48;1.70;;;1.33;;
11996;SDS011;6058;48.704;9.474;2022-08-21T14:58:33;2.50;;;1.75;;
11996;SDS011;6058;48.704;9.474;2022-08-21T15:01:01;2.90;;;1.80;;
11996;SDS011;6058;48.704;9.474;2022-08-21T15:03:29;2.55;;;1.73;;
11996;SDS011;6058;48.704;9.474;2022-08-21T15:05:56;2.25;;;1.65;;
11996;SDS011;6058;48.704;9.474;2022-08-21T15:08:23;6.03;;;1.63;;
11996;SDS011;6058;48.704;9.474;2022-08-21T15:10:51;2.75;;;1.67;;
11996;SDS011;6058;48.704;9.474;2022-08-21T15:13:19;2.85;;;1.60;;
11996;SDS011;6058;48.704;9.474;2022-08-21T15:15:48;1.88;;;1.60;;
11996;SDS011;6058;48.704;9.474;2022-08-21T15:18:17;2.80;;;1.38;;
11996;SDS011;6058;48.704;9.474;2022-08-21T15:20:44;3.42;;;2.10;;
11996;SDS011;6058;48.704;9.474;2022-08-21T15:23:11;2.35;;;1.67;;